Aérodrome :
LOGIN :

S'inscrire | Disclaimer

   EN    FR    IT 

 










Légende :    VFR   VFR Marginal   IFR   IFR Intensif   IFR Très Intensif
Visi : 
Plafond : 
>= 8 km
>= 3000ft
5 à 8 km
1000 à 3000 ft
1500m à 5 km
500 à 1000 ft
800 à 1500m
200 à 500 ft
< 800m
< 200 ft
Symboles :   Orages  Brouillard  Fortes neiges  Fortes précipitations  Vent > 20 kt
SIGMETs :   Divers  Orages  Givrage  Turbulence  Onde Orograph.  Cendres Volcan.






- Altitude de l'aérodrome : 102 ft
- Code IATA : EXT


EGTE - Exeter

DERNIER METAR :
  • 281150Z 03013G27KT 9999 FEW025 11/01 Q1028

METARs EXPIRÉS :
  • 281120Z 03018G28KT 360V060 9999 FEW030 11/02 Q1027
  • 281050Z 02019KT CAVOK 09/00 Q1027
  • 281020Z 01016KT 340V040 CAVOK 08/01 Q1027
  • 280950Z 01014G24KT CAVOK 09/03 Q1027
  • 280920Z 01015KT CAVOK 07/02 Q1027

TAF TAF EGTE
Valide du 28 à 12h jusqu'au 28 à 21h UTC


281056Z 2812/2821 03015KT CAVOK
TEMPO 2812/2821 04018G28KT
PROB30
TEMPO 2815/2818 BKN030
BECMG 2818/2821 BKN026



MET'MAP, la Météo Aéronautique d'un coup d'oeil ! - Copyright ORBIFLY Décembre 2007 - Disclaimer

ORBIFLY MET'MAP TEAM :

Programmation & Développement : Alexandra Zaïnal
Sur une idée originale de : Baudouin d'Aumeries
Assistance à la programmation : Marc-Olivier Méhu
Soutien technique & logistique : Manuel Goepfert

Contact : metmap@orbifly.com




SOURCES & CREDITS :

   NOAA